• Join FlightAware (Why Join?)
  • Login
  • US Flag 
10:26AM EDT


 

Airport Tracker/Info


-or-


 

Live Flight TrackerFlight Track Log ✈ DAL268 ✈ 22-Sep-2013 ✈ KSFO - KJFK

Flight Track Log - Related Links

Times and Time Zones

All times are in EDT time to prevent confusion due to time zone crossing. See the DAL268 flight status page for this flight to view local times or setup timezone preferences in your user account.

Time Position Orientation Groundspeed Altitude Reporting Facility
EDT Latitude Longitude Course Direction KTS MPH feet Rate Location/Type
02:26PM 37.6667 -122.3167 38° Northeast 199 229 2,700  Level Northern Cal TRACON
02:27PM 37.7167 -122.2500 47° Northeast 247 284 5,100 2,640 Climbing Northern Cal TRACON
02:28PM 37.8960 -122.0874 38° Northeast  Level FlightAware Approximate
02:28PM 37.7667 -122.2000 38° Northeast 260 299 7,800  Level Northern Cal TRACON
02:29PM 37.9879 -121.9794 35° Northeast  Level FlightAware Approximate
02:30PM 38.0949 -121.8858 35° Northeast  Level FlightAware Approximate
02:30PM 37.9092 -122.0669 36° Northeast 345 397 11,900  Level Oakland Center
02:31PM 38.1980 -121.7854 38° Northeast  Level FlightAware Approximate
02:31PM 37.9911 -121.9872 37° Northeast 369 425 14,100  Level Oakland Center
02:32PM 38.0789 -121.9047 36° Northeast 388 447 16,100 1,860 Climbing Oakland Center
02:33PM 38.1881 -121.8000 37° Northeast 406 467 18,000 1,980 Climbing Oakland Center
02:34PM 38.2828 -121.7081 37° Northeast 423 487 20,200 2,160 Climbing Oakland Center
02:35PM 38.3764 -121.6175 37° Northeast 425 489 22,500 1,860 Climbing Oakland Center
02:36PM 38.4611 -121.5236 41° Northeast 426 490 24,100 1,140 Climbing Oakland Center
02:37PM 38.5417 -121.3869 53° Northeast 456 525 24,900 840 Climbing Oakland Center
02:38PM 38.6156 -121.2419 57° Northeast 475 547 25,900 1,020 Climbing Oakland Center
02:39PM 38.6822 -121.0725 63° Northeast 500 575 27,100 1,200 Climbing Oakland Center
02:40PM 38.7506 -120.9142 61° Northeast 508 585 28,500 1,560 Climbing Oakland Center
02:41PM 38.8317 -120.7253 61° Northeast 504 580 30,400 1,500 Climbing Oakland Center
02:42PM 38.8958 -120.5669 62° Northeast 501 577 31,700 1,260 Climbing Oakland Center
02:43PM 38.9597 -120.4114 62° Northeast 494 568 33,100 1,260 Climbing Oakland Center
02:44PM 39.0217 -120.2572 63° Northeast 488 562 34,300 900 Climbing Oakland Center
02:45PM 39.0914 -120.0828 63° Northeast 488 562 35,000 300 Climbing Oakland Center
02:46PM 39.1558 -119.9292 62° Northeast 488 562 35,000  Level Oakland Center
02:47PM 39.2172 -119.7733 63° Northeast 487 560 35,000  Level Oakland Center
02:48PM 39.2814 -119.6183 62° Northeast 490 564 35,000  Level Oakland Center
02:49PM 39.3431 -119.4606 63° Northeast 491 565 35,100 240 Climbing Oakland Center
02:50PM 39.4039 -119.3042 63° Northeast 487 560 35,600 480 Climbing Oakland Center
02:52PM 39.4642 -119.1492 63° Northeast 483 556 36,100 480 Climbing Oakland Center
02:53PM 39.5269 -118.9922 63° Northeast 484 557 36,600 420 Climbing Oakland Center
02:54PM 39.5897 -118.8306 63° Northeast 491 565 37,000 180 Climbing Oakland Center
02:55PM 39.6528 -118.6686 63° Northeast 494 568 37,000  Level Oakland Center
02:56PM 39.7258 -118.4778 63° Northeast 489 563 37,000  Level Oakland Center
02:57PM 39.7850 -118.3214 64° Northeast 484 557 37,000  Level Oakland Center
02:58PM 39.8439 -118.1650 64° Northeast 481 554 37,000  Level Oakland Center
02:59PM 39.9031 -118.0092 64° Northeast 481 554 37,000  Level Oakland Center
03:00PM 39.9619 -117.8533 64° Northeast 480 552 37,000  Level Oakland Center
03:01PM 40.0206 -117.6944 64° Northeast 484 557 37,000  Level Oakland Center
03:02PM 40.0797 -117.5353 64° Northeast 486 559 37,000  Level Oakland Center
03:03PM 40.1383 -117.3761 64° Northeast 486 559 37,000  Level Oakland Center
03:04PM 40.2064 -117.1892 64° Northeast 490 564 37,000  Level Oakland Center
03:05PM 40.2617 -117.0353 65° Northeast 490 564 37,000  Level Oakland Center
03:06PM 40.3258 -116.8547 65° Northeast 496 571 37,000  Level Oakland Center
03:07PM 40.3861 -116.6925 64° Northeast 495 570 37,000  Level Oakland Center
03:08PM 40.4464 -116.5219 65° Northeast 502 578 37,000  Level Oakland Center
03:09PM 40.5025 -116.3658 65° Northeast 495 570 37,000  Level Oakland Center
03:11PM 40.5950 -116.1058 65° Northeast 492 566 37,000  Level Salt Lake Center
03:12PM 40.6511 -115.9528 64° Northeast 488 562 37,000  Level Salt Lake Center
03:13PM 40.7092 -115.7747 67° East 478 550 37,000  Level Salt Lake Center
03:14PM 40.7625 -115.6228 65° Northeast 476 548 37,000  Level Salt Lake Center
03:15PM 40.8233 -115.4475 65° Northeast 473 544 37,000  Level Salt Lake Center
03:16PM 40.8747 -115.2956 66° East 473 544 37,000  Level Salt Lake Center
03:17PM 40.9356 -115.1181 66° East 473 544 37,000  Level Salt Lake Center
03:18PM 40.9886 -114.9650 65° Northeast 477 549 37,000  Level Salt Lake Center
03:19PM 41.0414 -114.8153 65° Northeast 480 552 37,000  Level Salt Lake Center
03:20PM 41.1044 -114.6214 67° East 480 552 37,000  Level Salt Lake Center
03:21PM 41.1583 -114.4603 66° East 479 551 37,000  Level Salt Lake Center
03:22PM 41.2106 -114.2989 67° East 478 550 37,000  Level Salt Lake Center
03:23PM 41.2644 -114.1392 66° East 475 547 37,000  Level Salt Lake Center
03:24PM 41.3175 -113.9789 66° East 475 547 37,000  Level Salt Lake Center
03:25PM 41.3647 -113.8169 69° East 472 543 37,000  Level Salt Lake Center
03:26PM 41.3786 -113.6386 84° East 482 555 37,000  Level Salt Lake Center
03:27PM 41.3892 -113.4247 86° East 483 556 37,000  Level Salt Lake Center
03:28PM 41.3997 -113.2483 85° East 479 551 37,000  Level Salt Lake Center
03:29PM 41.4122 -113.0717 85° East 480 552 37,000  Level Salt Lake Center
03:30PM 41.4239 -112.8931 85° East 483 556 37,000  Level Salt Lake Center
03:31PM 41.4331 -112.7153 86° East 482 555 37,000  Level Salt Lake Center
03:32PM 41.4433 -112.5375 86° East 482 555 37,000  Level Salt Lake Center
03:33PM 41.4536 -112.3589 86° East 481 554 37,000  Level Salt Lake Center
03:34PM 41.4658 -112.1431 86° East 484 557 37,000  Level Salt Lake Center
03:35PM 41.4753 -111.9631 86° East 484 557 37,000  Level Salt Lake Center
03:36PM 41.4844 -111.7828 86° East 484 557 37,000  Level Salt Lake Center
03:37PM 41.4931 -111.6033 86° East 483 556 37,000  Level Salt Lake Center
03:38PM 41.5014 -111.4253 86° East 480 552 37,000  Level Salt Lake Center
03:39PM 41.5100 -111.2483 86° East 477 549 37,000  Level Salt Lake Center
03:40PM 41.5169 -111.0700 87° East 480 552 37,000  Level Salt Lake Center
03:41PM 41.5267 -110.8611 86° East 487 560 37,000  Level Salt Lake Center
03:42PM 41.5339 -110.6883 87° East 489 563 37,000  Level Salt Lake Center
03:44PM 41.5419 -110.4856 87° East 492 566 37,000  Level Salt Lake Center
03:45PM 41.5483 -110.3108 87° East 492 566 37,000  Level Salt Lake Center
03:46PM 41.5561 -110.1047 87° East 498 573 37,000  Level Salt Lake Center
03:47PM 41.5622 -109.9253 87° East 504 580 37,000  Level Salt Lake Center
03:48PM 41.5686 -109.7447 87° East 508 585 37,000  Level Salt Lake Center
03:49PM 41.5753 -109.5344 88° East 506 582 37,000  Level Salt Lake Center
03:50PM 41.5814 -109.3550 87° East 504 580 37,000  Level Salt Lake Center
03:51PM 41.5878 -109.1450 88° East 500 575 37,000  Level Salt Lake Center
03:52PM 41.5950 -108.9675 87° East 493 567 37,000  Level Salt Lake Center
03:53PM 41.6075 -108.7961 84° East 483 556 37,000  Level Salt Lake Center
03:54PM 41.6233 -108.5986 84° East 478 550 37,000  Level Salt Lake Center
03:55PM 41.6339 -108.4303 85° East 476 548 37,000  Level Salt Lake Center
03:56PM 41.6492 -108.2322 84° East 478 550 37,000  Level Salt Lake Center
03:57PM 41.6625 -108.0600 84° East 485 558 37,000  Level Salt Lake Center
03:58PM 41.6744 -107.8894 85° East 483 556 37,000  Level Salt Lake Center
03:59PM 41.6878 -107.6853 85° East 489 563 37,000  Level Denver Center
04:00PM 41.7000 -107.5103 85° East 492 566 37,000  Level Denver Center
04:01PM 41.7119 -107.3317 85° East 500 575 37,000  Level Denver Center
04:02PM 41.7247 -107.1236 85° East 503 579 37,000  Level Denver Center
04:03PM 41.7361 -106.9456 85° East 503 579 37,000  Level Denver Center
04:04PM 41.7481 -106.7369 86° East 504 580 37,000  Level Denver Center
04:05PM 41.7575 -106.5572 86° East 506 582 37,000  Level Denver Center
04:06PM 41.7711 -106.3375 85° East 511 588 37,000  Level Denver Center
04:07PM 41.7808 -106.1569 86° East 510 587 37,000  Level Denver Center
04:08PM 41.7906 -105.9758 86° East 511 588 37,000  Level Denver Center
04:09PM 41.8022 -105.7661 86° East 507 583 37,000  Level Denver Center
04:10PM 41.8083 -105.6133 87° East 512 589 37,000  Level Denver Center
04:11PM 41.8203 -105.3686 86° East 518 596 37,000  Level Denver Center
04:12PM 41.8278 -105.1864 87° East 515 593 37,000  Level Denver Center
04:13PM 41.8386 -104.9747 86° East 512 589 37,000  Level Denver Center
04:14PM 41.8456 -104.7933 87° East 511 588 37,000  Level Denver Center
04:15PM 41.8539 -104.5853 87° East 505 581 37,000  Level Denver Center
04:17PM 41.8611 -104.4031 87° East 512 589 37,000  Level Denver Center
04:18PM 41.8686 -104.2200 87° East 516 594 37,000  Level Denver Center
04:19PM 41.8764 -104.0053 87° East 519 597 37,000 60 Level Denver Center
04:20PM 41.8836 -103.7908 87° East 517 595 37,200 480 Climbing Denver Center
04:21PM 41.8894 -103.6089 87° East 513 590 38,100 660 Climbing Denver Center
04:22PM 41.9031 -103.3958 85° East 515 593 38,600 420 Climbing Denver Center
04:23PM 41.9319 -103.2094 78° East 527 606 39,000 180 Climbing Denver Center
04:24PM 41.9619 -102.9939 79° East 527 606 39,000  Level Denver Center
04:25PM 41.9867 -102.8103 80° East 525 604 39,000  Level Denver Center
04:26PM 42.0164 -102.5922 80° East 530 610 39,000  Level Denver Center
04:27PM 42.0411 -102.4028 80° East 536 617 39,000  Level Denver Center
04:28PM 42.0703 -102.1939 79° East 532 612 39,000  Level Denver Center
04:29PM 42.0986 -101.9747 80° East 530 610 39,000  Level Denver Center
04:30PM 42.1267 -101.7564 80° East 528 608 39,000  Level Denver Center
04:31PM 42.1528 -101.5397 81° East 523 602 39,000  Level Denver Center
04:32PM 42.1764 -101.3542 80° East 524 603 39,000  Level Denver Center
04:33PM 42.2022 -101.1361 81° East 525 604 39,000  Level Denver Center
04:34PM 42.2219 -100.9806 80° East 526 605 39,000  Level Denver Center
04:35PM 42.2500 -100.7336 81° East 523 602 39,000  Level Denver Center
04:36PM 42.2717 -100.5478 81° East 523 602 39,000  Level Denver Center
04:37PM 42.2967 -100.3297 81° East 524 603 39,000  Level Denver Center
04:38PM 42.3172 -100.1433 81° East 524 603 39,000  Level Denver Center
04:39PM 42.3381 -99.9569 81° East 524 603 39,000  Level Denver Center
04:41PM 42.3617 -99.7369 82° East 529 609 39,000  Level Denver Center
04:42PM 42.3814 -99.5619 81° East 525 604 39,000  Level Denver Center
04:43PM 42.4061 -99.3267 82° East 524 603 39,000  Level Denver Center
04:44PM 42.4253 -99.1311 82° East 524 603 39,000  Level Denver Center
04:45PM 42.4456 -98.9356 82° East 523 602 39,000  Level Denver Center
04:46PM 42.4647 -98.7400 82° East 523 602 39,000  Level Denver Center
04:47PM 42.4842 -98.4275 85° East 523 602 39,000  Level Minneapolis Center
04:48PM 42.4933 -98.2303 86° East 523 602 39,000  Level Minneapolis Center
04:49PM 42.5031 -98.0331 86° East 525 604 39,000  Level Minneapolis Center
04:50PM 42.5117 -97.8364 87° East 523 602 39,000  Level Minneapolis Center
04:51PM 42.5200 -97.6486 86° East 522 601 39,000  Level Minneapolis Center
04:52PM 42.5278 -97.4528 87° East 522 601 39,000  Level Minneapolis Center
04:53PM 42.5375 -97.2144 87° East 525 604 39,000  Level Minneapolis Center
04:54PM 42.5481 -97.0183 86° East 524 603 39,000  Level Minneapolis Center
04:55PM 42.5586 -96.8200 86° East 524 603 39,000  Level Minneapolis Center
04:56PM 42.5681 -96.6206 86° East 528 608 39,000  Level Minneapolis Center
04:58PM 42.5772 -96.4242 86° East 523 602 39,000  Level Minneapolis Center
04:59PM 42.5858 -96.2278 87° East 522 601 39,000  Level Minneapolis Center
05:00PM 42.5939 -96.0319 87° East 519 597 39,000  Level Minneapolis Center
05:01PM 42.6039 -95.7964 87° East 519 597 39,000  Level Minneapolis Center
05:02PM 42.6117 -95.6014 87° East 517 595 39,000  Level Minneapolis Center
05:03PM 42.6186 -95.4075 87° East 515 593 39,000  Level Minneapolis Center
05:04PM 42.6253 -95.2139 87° East 513 590 39,000  Level Minneapolis Center
05:05PM 42.6325 -95.0217 87° East 510 587 39,000  Level Minneapolis Center
05:06PM 42.6383 -94.8286 88° East 511 588 39,000  Level Minneapolis Center
05:07PM 42.6456 -94.5975 87° East 510 587 39,000  Level Minneapolis Center
05:08PM 42.6489 -94.4208 88° East 512 589 39,000  Level Minneapolis Center
05:09PM 42.6539 -94.2306 88° East 512 589 39,000  Level Minneapolis Center
05:10PM 42.6600 -94.0422 87° East 506 582 39,000  Level Minneapolis Center
05:11PM 42.6647 -93.8133 88° East 509 586 39,000  Level Minneapolis Center
05:12PM 42.6703 -93.6228 88° East 509 586 39,000  Level Minneapolis Center
05:13PM 42.6731 -93.4317 89° East 510 587 39,000  Level Minneapolis Center
05:14PM 42.6772 -93.2414 88° East 510 587 39,000  Level Minneapolis Center
05:15PM 42.6806 -93.0136 89° East 509 586 39,000  Level Minneapolis Center
05:16PM 42.6825 -92.9358 88° East 510 587 39,000  Level Chicago Center
05:17PM 42.6822 -92.7083 90° East 508 585 39,000  Level Chicago Center
05:18PM 42.6844 -92.5175 89° East 508 585 39,000  Level Chicago Center
05:19PM 42.6892 -92.3272 88° East 508 585 39,000  Level Chicago Center
05:20PM 42.6908 -92.1367 89° East 511 588 39,000  Level Chicago Center
05:21PM 42.6925 -91.9478 89° East 508 585 39,000  Level Chicago Center
05:22PM 42.6925 -91.7247 90° East 506 582 39,000  Level Chicago Center
05:23PM 42.6933 -91.5300 90° East 503 579 39,000  Level Chicago Center
05:24PM 42.6950 -91.3133 89° East 529 609 39,000  Level Chicago Center
05:25PM 42.6944 -91.1281 90° East 506 582 39,000  Level Chicago Center
05:26PM 42.6950 -90.9392 90° East 508 585 39,000  Level Chicago Center
05:27PM 42.6936 -90.7492 91° East 508 585 39,000  Level Chicago Center
05:28PM 42.6939 -90.5583 90° East 510 587 39,000  Level Chicago Center
05:29PM 42.6906 -90.3300 91° East 509 586 39,000  Level Chicago Center
05:30PM 42.6906 -90.1394 90° East 508 585 39,000  Level Chicago Center
05:31PM 42.6875 -89.9478 91° East 509 586 39,000  Level Chicago Center
05:32PM 42.6850 -89.7250 91° East 513 590 39,000  Level Chicago Center
05:33PM 42.6819 -89.5328 91° East 511 588 39,000  Level Chicago Center
05:34PM 42.6800 -89.3425 91° East 508 585 39,000  Level Chicago Center
05:35PM 42.6761 -89.1494 92° East 512 589 39,000  Level Chicago Center
05:36PM 42.6719 -88.9550 92° East 515 593 39,000  Level Chicago Center
05:37PM 42.6672 -88.7231 92° East 517 595 39,000  Level Chicago Center
05:38PM 42.6631 -88.5269 92° East 522 601 39,000  Level Chicago Center
05:39PM 42.6600 -88.3342 91° East 516 594 39,000  Level Chicago Center
05:41PM 42.6544 -88.1411 92° East 515 593 39,000  Level Chicago Center
05:42PM 42.6486 -87.9483 92° East 516 594 39,000  Level Chicago Center
05:43PM 42.6425 -87.7186 92° East 511 588 39,000  Level Chicago Center
05:44PM 42.6367 -87.5258 92° East 513 590 39,000  Level Chicago Center
05:45PM 42.6306 -87.3406 93° East 513 590 39,000  Level Chicago Center
05:46PM 42.6231 -87.1481 93° East 513 590 39,000  Level Chicago Center
05:47PM 42.6169 -86.9550 92° East 514 592 39,000  Level Chicago Center
05:48PM 42.6078 -86.7233 93° East 515 593 39,000  Level Chicago Center
05:49PM 42.6000 -86.5314 93° East 514 592 39,000  Level Chicago Center
05:50PM 42.5911 -86.3419 94° East 510 587 39,000  Level Chicago Center
05:51PM 42.5828 -86.1497 93° East 514 592 39,000  Level Chicago Center
05:52PM 42.5739 -85.9572 94° East 516 594 39,000  Level Chicago Center
05:53PM 42.5642 -85.7267 93° East 518 596 39,000  Level Chicago Center
05:54PM 42.5547 -85.5333 94° East 519 597 39,000  Level Chicago Center
05:55PM 42.5456 -85.3406 94° East 518 596 39,000  Level Chicago Center
05:56PM 42.5356 -85.1506 94° East 511 588 39,000  Level Chicago Center
05:57PM 42.5261 -84.9628 94° East 504 580 39,000  Level Chicago Center
05:58PM 42.5133 -84.7372 94° East 502 578 39,000  Level Chicago Center
05:59PM 42.5028 -84.5481 94° East 506 582 39,000  Level Chicago Center
06:00PM 42.4906 -84.3592 95° East 506 582 39,000  Level Chicago Center
06:01PM 42.4847 -84.2642 95° East 506 582 39,000  Level Cleveland Center
06:02PM 42.4728 -84.0731 95° East 508 585 39,000  Level Cleveland Center
06:03PM 42.4578 -83.8450 95° East 508 585 39,000  Level Cleveland Center
06:04PM 42.4458 -83.6564 95° East 500 575 39,000  Level Cleveland Center
06:05PM 42.4331 -83.4644 95° East 501 577 39,000  Level Cleveland Center
06:06PM 42.4206 -83.2897 95° East 498 573 39,000  Level Cleveland Center
06:07PM 42.4061 -83.0861 95° East 497 572 39,000  Level Cleveland Center
06:08PM 42.3917 -82.9017 96° East 495 570 39,000  Level Cleveland Center
06:09PM 42.3792 -82.7214 95° East 486 559 39,000  Level Cleveland Center
06:10PM 42.3697 -82.5419 94° East 480 552 39,000  Level Cleveland Center
06:11PM 42.3631 -82.3258 92° East 482 555 39,000  Level Cleveland Center
06:12PM 42.3561 -82.1447 93° East 483 556 39,000  Level Cleveland Center
06:13PM 42.3486 -81.9722 93° East 484 557 39,000  Level Cleveland Center
06:14PM 42.3397 -81.7892 94° East 483 556 39,000  Level Cleveland Center
06:15PM 42.3311 -81.6061 94° East 483 556 39,000  Level Cleveland Center
06:16PM 42.3208 -81.3961 94° East 477 549 39,000  Level Cleveland Center
06:17PM 42.3125 -81.2178 94° East 473 544 39,000  Level Cleveland Center
06:18PM 42.3033 -81.0389 94° East 473 544 39,000  Level Cleveland Center
06:19PM 42.2939 -80.8614 94° East 470 541 39,000  Level Cleveland Center
06:20PM 42.2836 -80.6833 94° East 471 542 39,000  Level Cleveland Center
06:21PM 42.2753 -80.5081 94° East 467 537 39,000  Level Cleveland Center
06:22PM 42.2650 -80.3308 94° East 469 540 39,000  Level Cleveland Center
06:24PM 42.2531 -80.1233 94° East 471 542 39,000  Level Cleveland Center
06:25PM 42.2422 -79.9439 95° East 474 545 39,000  Level Cleveland Center
06:26PM 42.2306 -79.7686 95° East 473 544 39,000  Level Cleveland Center
06:27PM 42.2194 -79.5922 95° East 474 545 39,000  Level Cleveland Center
06:28PM 42.2078 -79.4150 95° East 476 548 39,000  Level Cleveland Center
06:29PM 42.1958 -79.2361 95° East 481 554 39,000  Level Cleveland Center
06:30PM 42.1658 -79.0231 101° East 485 558 39,000  Level Cleveland Center
06:31PM 42.1217 -78.8536 109° East 483 556 39,000  Level Cleveland Center
06:32PM 42.0783 -78.6814 109° East 485 558 39,000  Level Cleveland Center
06:33PM 42.0331 -78.5036 109° East 498 573 39,000  Level Cleveland Center
06:34PM 41.9861 -78.3222 109° East 510 587 39,000  Level Cleveland Center
06:35PM 41.9381 -78.1297 108° East 514 592 39,000  Level Cleveland Center
06:36PM 41.8836 -77.9225 109° East 516 594 39,000  Level Cleveland Center
06:37PM 41.8358 -77.7408 109° East 518 596 39,000  Level Cleveland Center
06:38PM 41.7883 -77.5597 109° East 517 595 39,000  Level Cleveland Center
06:39PM 41.7386 -77.3725 110° East 516 594 39,000  Level Cleveland Center
06:40PM 41.6897 -77.1911 110° East 519 597 39,000  Level Cleveland Center
06:41PM 41.6414 -77.0122 110° East 516 594 39,000  Level Cleveland Center
06:42PM 41.5844 -76.8050 110° East 513 590 39,000  Level Cleveland Center
06:43PM 41.5358 -76.6256 110° East 515 593 39,000 -60 Level Cleveland Center
06:44PM 41.4858 -76.4475 110° East 517 595 38,900 -1,080 Descending Cleveland Center
06:45PM 41.4372 -76.2719 110° East 515 593 36,800 -2,640 Descending Cleveland Center
06:46PM 41.3772 -76.0583 110° East 515 593 33,500 -3,120 Descending Cleveland Center
06:47PM 41.3222 -75.8761 112° Southeast 506 582 30,400 -2,640 Descending New York Center
06:48PM 41.2753 -75.7042 110° East 500 575 28,100 -2,280 Descending New York Center
06:49PM 41.2217 -75.5347 113° Southeast 500 575 25,900 -2,160 Descending New York Center
06:50PM 41.1694 -75.3822 114° Southeast 476 548 23,800 -1,800 Descending New York Center
06:51PM 41.1156 -75.2161 113° Southeast 476 548 22,300 -1,500 Descending New York Center
06:52PM 41.0686 -75.0753 114° Southeast 471 542 20,900 -1,500 Descending New York Center
06:53PM 41.0136 -74.9206 115° Southeast 466 536 19,400 -960 Descending New York Center
06:54PM 40.9825 -74.7400 103° East 458 527 19,000 -240 Descending New York Center
06:55PM 40.9647 -74.5769 98° East 448 516 19,000  Level New York Center
06:56PM 40.9486 -74.4278 98° East 453 521 19,000  Level New York Center
06:57PM 40.9333 -74.3333 102° East 455 524 19,000  Level New York TRACON
06:58PM 40.9000 -74.1667 105° East 450 518 19,000 -180 Level New York TRACON
06:59PM 40.8500 -74.0333 116° Southeast 379 436 18,700 -900 Descending New York TRACON
07:00PM 40.8167 -73.9333 114° Southeast 359 413 17,400 -1,500 Descending New York TRACON
07:01PM 40.7667 -73.8000 116° Southeast 359 413 15,700 -1,560 Descending New York TRACON
07:02PM 40.7500 -73.6667 99° East 367 422 14,200 -1,380 Descending New York TRACON
07:03PM 40.7500 -73.5500 90° East 338 389 13,000 -1,080 Descending New York TRACON
07:04PM 40.7167 -73.4333 111° Southeast 337 388 12,100 -1,200 Descending New York TRACON
07:05PM 40.6333 -73.4333 180° South 297 342 10,600 -1,500 Descending New York TRACON
07:06PM 40.5667 -73.4667 201° Southwest 287 330 9,100 -1,680 Descending New York TRACON
07:07PM 40.5000 -73.5167 210° Southwest 285 328 7,300 -1,800 Descending New York TRACON
07:08PM 40.4167 -73.5500 197° South 281 323 5,500 -1,500 Descending New York TRACON
07:09PM 40.3500 -73.5833 201° Southwest 268 308 4,300 -1,020 Descending New York TRACON
07:09PM 40.3278 -73.6025 213° Southwest 271 312 4,000 -600 Descending New York Center
07:10PM 40.3000 -73.6333 220° Southwest 234 269 3,700 -960 Descending New York TRACON
07:11PM 40.3167 -73.7000 288° West 200 230 2,600 -900 Descending New York TRACON
07:12PM 40.3500 -73.7667 303° West 199 229 2,000 -300 Descending New York TRACON
07:13PM 40.3667 -73.8333 288° West 199 229 2,000  Level New York TRACON
07:14PM 40.4000 -73.8833 311° West 185 213 2,000  Level New York TRACON
07:15PM 40.4333 -73.8833 360° North 166 191 2,000  Level New York TRACON
07:16PM 40.5000 -73.8667 11° North 166 191 2,000  Level New York TRACON
07:17PM 40.5333 -73.8500 21° North 167 192 2,000 -360 Level New York TRACON
07:18PM 40.5667 -73.8167 37° Northeast 165 190 1,300 -780 Descending New York TRACON
07:19PM 40.6000 -73.7833 37° Northeast 130 150 500 -840 Descending New York TRACON